Aquinnah, Massachusetts
Current Conditions -  °F | °C
As of 8:53 PM on Friday 28 Nov 2014 (Local Time) from KMVY Reporting Station
Scattered Clouds Scattered Clouds  
Wind Chill: 22°   Ceiling: Unl
Heat Index: 30°   Visibility: 10mi
Dew Point: 15°   Wind: 8mph
Humidity: 54%   Direction: 320°NW
Pressure: 30.18"   Gusts: NA
Location:  41.3536°N, 70.7417°W
Report Text: KMVY 290153Z AUTO 32007KT 10SM SCT042 M01/M09 A3018 RMK AO2 SLP220 T10111094
Loading
Personal Weather Stations






























Interactive Weather Map New forecast layout! Learn more

10-Day Weather Forecast

Advertisements
Track Severe Weather on mobile